sensor_id;sensor_type;location;lat;lon;timestamp;P1;durP1;ratioP1;P2;durP2;ratioP2
49460;SDS011;35355;49.198;-0.368;2023-04-03T00:00:56;9.52;;;1.13;;
49460;SDS011;35355;49.198;-0.368;2023-04-03T00:03:21;5.97;;;0.80;;
49460;SDS011;35355;49.198;-0.368;2023-04-03T00:05:47;8.77;;;1.10;;
49460;SDS011;35355;49.198;-0.368;2023-04-03T00:08:13;7.97;;;1.10;;
49460;SDS011;35355;49.198;-0.368;2023-04-03T00:10:38;14.00;;;1.83;;
49460;SDS011;35355;49.198;-0.368;2023-04-03T00:13:04;7.75;;;0.93;;
49460;SDS011;35355;49.198;-0.368;2023-04-03T00:15:31;7.40;;;0.70;;
49460;SDS011;35355;49.198;-0.368;2023-04-03T00:17:57;14.10;;;1.48;;
49460;SDS011;35355;49.198;-0.368;2023-04-03T00:20:22;9.13;;;1.20;;
49460;SDS011;35355;49.198;-0.368;2023-04-03T00:22:48;4.78;;;0.88;;
49460;SDS011;35355;49.198;-0.368;2023-04-03T00:25:13;6.47;;;1.10;;
49460;SDS011;35355;49.198;-0.368;2023-04-03T00:27:39;11.48;;;1.15;;
49460;SDS011;35355;49.198;-0.368;2023-04-03T00:30:06;4.80;;;0.88;;
49460;SDS011;35355;49.198;-0.368;2023-04-03T00:32:33;3.92;;;0.90;;
49460;SDS011;35355;49.198;-0.368;2023-04-03T00:34:58;11.25;;;1.98;;
49460;SDS011;35355;49.198;-0.368;2023-04-03T00:37:24;5.78;;;1.38;;
49460;SDS011;35355;49.198;-0.368;2023-04-03T00:39:49;7.57;;;1.20;;
49460;SDS011;35355;49.198;-0.368;2023-04-03T00:42:15;10.10;;;1.05;;
49460;SDS011;35355;49.198;-0.368;2023-04-03T00:47:07;16.80;;;2.15;;
49460;SDS011;35355;49.198;-0.368;2023-04-03T00:49:35;5.93;;;1.80;;
49460;SDS011;35355;49.198;-0.368;2023-04-03T00:52:02;6.25;;;1.38;;
49460;SDS011;35355;49.198;-0.368;2023-04-03T00:54:28;10.00;;;1.33;;
49460;SDS011;35355;49.198;-0.368;2023-04-03T00:56:54;6.50;;;1.17;;
49460;SDS011;35355;49.198;-0.368;2023-04-03T00:59:23;4.57;;;1.20;;
49460;SDS011;35355;49.198;-0.368;2023-04-03T01:01:52;6.28;;;1.00;;
49460;SDS011;35355;49.198;-0.368;2023-04-03T01:04:30;9.63;;;1.55;;
49460;SDS011;35355;49.198;-0.368;2023-04-03T01:06:58;4.55;;;1.67;;
49460;SDS011;35355;49.198;-0.368;2023-04-03T01:09:29;7.28;;;1.35;;
49460;SDS011;35355;49.198;-0.368;2023-04-03T01:12:12;5.93;;;1.67;;
49460;SDS011;35355;49.198;-0.368;2023-04-03T01:14:52;8.32;;;1.35;;
49460;SDS011;35355;49.198;-0.368;2023-04-03T01:17:42;12.55;;;1.55;;
49460;SDS011;35355;49.198;-0.368;2023-04-03T01:22:56;9.18;;;1.70;;
49460;SDS011;35355;49.198;-0.368;2023-04-03T01:25:31;6.32;;;1.30;;
49460;SDS011;35355;49.198;-0.368;2023-04-03T01:27:56;8.95;;;1.67;;
49460;SDS011;35355;49.198;-0.368;2023-04-03T01:30:24;10.85;;;2.13;;
49460;SDS011;35355;49.198;-0.368;2023-04-03T01:32:55;7.07;;;1.30;;
49460;SDS011;35355;49.198;-0.368;2023-04-03T01:35:20;14.18;;;2.15;;
49460;SDS011;35355;49.198;-0.368;2023-04-03T01:37:45;6.28;;;1.50;;
49460;SDS011;35355;49.198;-0.368;2023-04-03T01:40:11;4.15;;;1.38;;
49460;SDS011;35355;49.198;-0.368;2023-04-03T01:42:36;5.63;;;1.80;;
49460;SDS011;35355;49.198;-0.368;2023-04-03T01:45:01;9.77;;;2.45;;
49460;SDS011;35355;49.198;-0.368;2023-04-03T01:47:27;6.05;;;1.73;;
49460;SDS011;35355;49.198;-0.368;2023-04-03T01:49:53;10.75;;;1.73;;
49460;SDS011;35355;49.198;-0.368;2023-04-03T01:52:19;8.13;;;1.60;;
49460;SDS011;35355;49.198;-0.368;2023-04-03T01:54:45;12.10;;;2.38;;
49460;SDS011;35355;49.198;-0.368;2023-04-03T01:57:10;8.45;;;1.70;;
49460;SDS011;35355;49.198;-0.368;2023-04-03T01:59:36;6.57;;;1.85;;
49460;SDS011;35355;49.198;-0.368;2023-04-03T02:02:02;6.88;;;1.75;;
49460;SDS011;35355;49.198;-0.368;2023-04-03T02:04:27;3.90;;;1.52;;
49460;SDS011;35355;49.198;-0.368;2023-04-03T02:06:52;5.55;;;1.73;;
49460;SDS011;35355;49.198;-0.368;2023-04-03T02:09:18;7.13;;;2.22;;
49460;SDS011;35355;49.198;-0.368;2023-04-03T02:11:43;11.32;;;2.10;;
49460;SDS011;35355;49.198;-0.368;2023-04-03T02:14:08;6.47;;;2.10;;
49460;SDS011;35355;49.198;-0.368;2023-04-03T02:16:34;9.15;;;2.38;;
49460;SDS011;35355;49.198;-0.368;2023-04-03T02:18:59;9.82;;;2.45;;
49460;SDS011;35355;49.198;-0.368;2023-04-03T02:21:24;7.57;;;2.35;;
49460;SDS011;35355;49.198;-0.368;2023-04-03T02:23:50;8.95;;;1.95;;
49460;SDS011;35355;49.198;-0.368;2023-04-03T02:26:15;13.40;;;2.78;;
49460;SDS011;35355;49.198;-0.368;2023-04-03T02:28:41;7.32;;;2.75;;
49460;SDS011;35355;49.198;-0.368;2023-04-03T02:31:07;6.78;;;2.78;;
49460;SDS011;35355;49.198;-0.368;2023-04-03T02:33:33;7.78;;;2.22;;
49460;SDS011;35355;49.198;-0.368;2023-04-03T02:36:00;4.97;;;2.20;;
49460;SDS011;35355;49.198;-0.368;2023-04-03T02:38:26;11.63;;;2.58;;
49460;SDS011;35355;49.198;-0.368;2023-04-03T02:40:51;9.88;;;3.08;;
49460;SDS011;35355;49.198;-0.368;2023-04-03T02:43:17;13.13;;;3.15;;
49460;SDS011;35355;49.198;-0.368;2023-04-03T02:45:43;7.00;;;2.72;;
49460;SDS011;35355;49.198;-0.368;2023-04-03T02:48:08;8.77;;;2.88;;
49460;SDS011;35355;49.198;-0.368;2023-04-03T02:50:34;7.68;;;3.20;;
49460;SDS011;35355;49.198;-0.368;2023-04-03T02:52:59;8.40;;;3.88;;
49460;SDS011;35355;49.198;-0.368;2023-04-03T02:55:25;8.82;;;4.20;;
49460;SDS011;35355;49.198;-0.368;2023-04-03T02:57:50;8.30;;;3.97;;
49460;SDS011;35355;49.198;-0.368;2023-04-03T03:00:16;5.97;;;3.72;;
49460;SDS011;35355;49.198;-0.368;2023-04-03T03:02:41;8.93;;;4.07;;
49460;SDS011;35355;49.198;-0.368;2023-04-03T03:05:07;10.93;;;4.97;;
49460;SDS011;35355;49.198;-0.368;2023-04-03T03:07:33;9.80;;;3.92;;
49460;SDS011;35355;49.198;-0.368;2023-04-03T03:09:58;10.38;;;4.90;;
49460;SDS011;35355;49.198;-0.368;2023-04-03T03:12:24;9.02;;;4.78;;
49460;SDS011;35355;49.198;-0.368;2023-04-03T03:14:49;6.97;;;4.65;;
49460;SDS011;35355;49.198;-0.368;2023-04-03T03:17:15;8.48;;;4.45;;
49460;SDS011;35355;49.198;-0.368;2023-04-03T03:19:41;10.32;;;5.10;;
49460;SDS011;35355;49.198;-0.368;2023-04-03T03:22:06;14.63;;;5.50;;
49460;SDS011;35355;49.198;-0.368;2023-04-03T03:24:31;9.50;;;6.00;;
49460;SDS011;35355;49.198;-0.368;2023-04-03T03:26:57;7.68;;;5.25;;
49460;SDS011;35355;49.198;-0.368;2023-04-03T03:29:22;13.15;;;6.15;;
49460;SDS011;35355;49.198;-0.368;2023-04-03T03:31:47;10.45;;;5.97;;
49460;SDS011;35355;49.198;-0.368;2023-04-03T03:34:13;13.20;;;6.90;;
49460;SDS011;35355;49.198;-0.368;2023-04-03T03:36:38;10.25;;;6.35;;
49460;SDS011;35355;49.198;-0.368;2023-04-03T03:39:04;9.50;;;6.18;;
49460;SDS011;35355;49.198;-0.368;2023-04-03T03:41:30;12.60;;;5.60;;
49460;SDS011;35355;49.198;-0.368;2023-04-03T03:43:56;11.57;;;5.55;;
49460;SDS011;35355;49.198;-0.368;2023-04-03T03:46:21;8.32;;;5.75;;
49460;SDS011;35355;49.198;-0.368;2023-04-03T03:48:46;14.70;;;6.60;;
49460;SDS011;35355;49.198;-0.368;2023-04-03T03:51:12;14.45;;;7.07;;
49460;SDS011;35355;49.198;-0.368;2023-04-03T03:53:37;12.40;;;6.93;;
49460;SDS011;35355;49.198;-0.368;2023-04-03T03:56:03;10.30;;;6.65;;
49460;SDS011;35355;49.198;-0.368;2023-04-03T03:58:29;11.48;;;6.85;;
49460;SDS011;35355;49.198;-0.368;2023-04-03T04:00:55;13.05;;;7.25;;
49460;SDS011;35355;49.198;-0.368;2023-04-03T04:03:20;11.52;;;6.47;;
49460;SDS011;35355;49.198;-0.368;2023-04-03T04:05:46;10.82;;;6.40;;
49460;SDS011;35355;49.198;-0.368;2023-04-03T04:08:11;14.82;;;7.20;;
49460;SDS011;35355;49.198;-0.368;2023-04-03T04:10:36;10.65;;;6.20;;
49460;SDS011;35355;49.198;-0.368;2023-04-03T04:13:03;11.18;;;7.18;;
49460;SDS011;35355;49.198;-0.368;2023-04-03T04:15:28;9.77;;;6.55;;
49460;SDS011;35355;49.198;-0.368;2023-04-03T04:17:54;11.70;;;6.97;;
49460;SDS011;35355;49.198;-0.368;2023-04-03T04:20:20;16.38;;;6.47;;
49460;SDS011;35355;49.198;-0.368;2023-04-03T04:22:45;10.85;;;6.13;;
49460;SDS011;35355;49.198;-0.368;2023-04-03T04:25:10;11.75;;;6.90;;
49460;SDS011;35355;49.198;-0.368;2023-04-03T04:27:36;10.27;;;6.75;;
49460;SDS011;35355;49.198;-0.368;2023-04-03T04:30:02;9.15;;;5.63;;
49460;SDS011;35355;49.198;-0.368;2023-04-03T04:32:28;15.95;;;6.88;;
49460;SDS011;35355;49.198;-0.368;2023-04-03T04:34:54;10.00;;;7.13;;
49460;SDS011;35355;49.198;-0.368;2023-04-03T04:37:19;15.38;;;6.72;;
49460;SDS011;35355;49.198;-0.368;2023-04-03T04:39:45;12.57;;;7.13;;
49460;SDS011;35355;49.198;-0.368;2023-04-03T04:42:10;15.75;;;7.00;;
49460;SDS011;35355;49.198;-0.368;2023-04-03T04:44:38;11.43;;;7.15;;
49460;SDS011;35355;49.198;-0.368;2023-04-03T04:47:03;15.65;;;7.20;;
49460;SDS011;35355;49.198;-0.368;2023-04-03T04:49:29;15.10;;;7.72;;
49460;SDS011;35355;49.198;-0.368;2023-04-03T04:51:55;12.25;;;7.50;;
49460;SDS011;35355;49.198;-0.368;2023-04-03T04:54:20;14.27;;;8.13;;
49460;SDS011;35355;49.198;-0.368;2023-04-03T04:56:46;19.48;;;8.30;;
49460;SDS011;35355;49.198;-0.368;2023-04-03T04:59:12;10.35;;;7.20;;
49460;SDS011;35355;49.198;-0.368;2023-04-03T05:01:37;11.68;;;7.82;;
49460;SDS011;35355;49.198;-0.368;2023-04-03T05:04:02;13.18;;;8.90;;
49460;SDS011;35355;49.198;-0.368;2023-04-03T05:06:28;15.20;;;8.30;;
49460;SDS011;35355;49.198;-0.368;2023-04-03T05:08:55;12.93;;;8.73;;
49460;SDS011;35355;49.198;-0.368;2023-04-03T05:11:20;13.25;;;8.50;;
49460;SDS011;35355;49.198;-0.368;2023-04-03T05:13:46;14.95;;;8.88;;
49460;SDS011;35355;49.198;-0.368;2023-04-03T05:16:11;11.85;;;8.15;;
49460;SDS011;35355;49.198;-0.368;2023-04-03T05:18:36;15.77;;;9.63;;
49460;SDS011;35355;49.198;-0.368;2023-04-03T05:21:02;13.02;;;8.30;;
49460;SDS011;35355;49.198;-0.368;2023-04-03T05:23:27;12.82;;;8.85;;
49460;SDS011;35355;49.198;-0.368;2023-04-03T05:25:53;11.90;;;8.50;;
49460;SDS011;35355;49.198;-0.368;2023-04-03T05:28:18;12.27;;;8.68;;
49460;SDS011;35355;49.198;-0.368;2023-04-03T05:30:43;13.43;;;8.93;;
49460;SDS011;35355;49.198;-0.368;2023-04-03T05:33:09;15.88;;;9.43;;
49460;SDS011;35355;49.198;-0.368;2023-04-03T05:35:35;14.27;;;8.27;;
49460;SDS011;35355;49.198;-0.368;2023-04-03T05:38:04;17.65;;;9.80;;
49460;SDS011;35355;49.198;-0.368;2023-04-03T05:40:30;14.60;;;9.32;;
49460;SDS011;35355;49.198;-0.368;2023-04-03T05:42:55;13.55;;;9.40;;
49460;SDS011;35355;49.198;-0.368;2023-04-03T05:45:21;16.00;;;9.40;;
49460;SDS011;35355;49.198;-0.368;2023-04-03T05:47:46;16.15;;;9.95;;
49460;SDS011;35355;49.198;-0.368;2023-04-03T05:50:12;19.42;;;9.13;;
49460;SDS011;35355;49.198;-0.368;2023-04-03T05:52:38;19.25;;;9.82;;
49460;SDS011;35355;49.198;-0.368;2023-04-03T05:55:07;15.68;;;10.20;;
49460;SDS011;35355;49.198;-0.368;2023-04-03T05:57:33;20.67;;;10.50;;
49460;SDS011;35355;49.198;-0.368;2023-04-03T05:59:58;21.80;;;10.02;;
49460;SDS011;35355;49.198;-0.368;2023-04-03T06:02:24;15.65;;;11.02;;
49460;SDS011;35355;49.198;-0.368;2023-04-03T06:04:51;17.67;;;10.45;;
49460;SDS011;35355;49.198;-0.368;2023-04-03T06:07:21;18.55;;;10.98;;
49460;SDS011;35355;49.198;-0.368;2023-04-03T06:09:48;18.17;;;10.80;;
49460;SDS011;35355;49.198;-0.368;2023-04-03T06:12:15;20.45;;;11.48;;
49460;SDS011;35355;49.198;-0.368;2023-04-03T06:14:40;20.92;;;12.20;;
49460;SDS011;35355;49.198;-0.368;2023-04-03T06:17:06;20.90;;;10.98;;
49460;SDS011;35355;49.198;-0.368;2023-04-03T06:19:33;17.52;;;10.13;;
49460;SDS011;35355;49.198;-0.368;2023-04-03T06:21:58;14.20;;;9.30;;
49460;SDS011;35355;49.198;-0.368;2023-04-03T06:24:24;19.15;;;8.90;;
49460;SDS011;35355;49.198;-0.368;2023-04-03T06:26:50;12.80;;;7.88;;
49460;SDS011;35355;49.198;-0.368;2023-04-03T06:29:16;12.73;;;6.35;;
49460;SDS011;35355;49.198;-0.368;2023-04-03T06:31:42;10.13;;;6.57;;
49460;SDS011;35355;49.198;-0.368;2023-04-03T06:34:08;11.32;;;5.40;;
49460;SDS011;35355;49.198;-0.368;2023-04-03T06:36:36;7.90;;;4.82;;
49460;SDS011;35355;49.198;-0.368;2023-04-03T06:39:02;13.23;;;5.80;;
49460;SDS011;35355;49.198;-0.368;2023-04-03T06:41:28;9.43;;;5.38;;
49460;SDS011;35355;49.198;-0.368;2023-04-03T06:43:53;8.27;;;5.63;;
49460;SDS011;35355;49.198;-0.368;2023-04-03T06:46:21;9.15;;;5.75;;
49460;SDS011;35355;49.198;-0.368;2023-04-03T06:48:48;10.10;;;5.68;;
49460;SDS011;35355;49.198;-0.368;2023-04-03T06:51:18;10.65;;;5.47;;
49460;SDS011;35355;49.198;-0.368;2023-04-03T06:53:46;10.80;;;6.05;;
49460;SDS011;35355;49.198;-0.368;2023-04-03T06:56:12;19.73;;;6.20;;
49460;SDS011;35355;49.198;-0.368;2023-04-03T06:58:37;12.90;;;5.68;;
49460;SDS011;35355;49.198;-0.368;2023-04-03T07:01:03;14.30;;;6.38;;
49460;SDS011;35355;49.198;-0.368;2023-04-03T07:03:29;13.88;;;6.30;;
49460;SDS011;35355;49.198;-0.368;2023-04-03T07:05:54;13.57;;;6.10;;
49460;SDS011;35355;49.198;-0.368;2023-04-03T07:08:20;13.90;;;6.28;;
49460;SDS011;35355;49.198;-0.368;2023-04-03T07:10:46;16.20;;;5.95;;
49460;SDS011;35355;49.198;-0.368;2023-04-03T07:13:11;9.65;;;5.63;;
49460;SDS011;35355;49.198;-0.368;2023-04-03T07:15:37;8.95;;;5.60;;
49460;SDS011;35355;49.198;-0.368;2023-04-03T07:18:02;13.15;;;6.45;;
49460;SDS011;35355;49.198;-0.368;2023-04-03T07:20:29;8.32;;;4.63;;
49460;SDS011;35355;49.198;-0.368;2023-04-03T07:22:54;8.30;;;4.75;;
49460;SDS011;35355;49.198;-0.368;2023-04-03T07:25:20;9.50;;;5.57;;
49460;SDS011;35355;49.198;-0.368;2023-04-03T07:27:45;8.90;;;5.05;;
49460;SDS011;35355;49.198;-0.368;2023-04-03T07:30:11;8.70;;;4.15;;
49460;SDS011;35355;49.198;-0.368;2023-04-03T07:32:38;8.50;;;4.70;;
49460;SDS011;35355;49.198;-0.368;2023-04-03T07:35:04;7.20;;;4.68;;
49460;SDS011;35355;49.198;-0.368;2023-04-03T07:37:30;6.70;;;4.75;;
49460;SDS011;35355;49.198;-0.368;2023-04-03T07:39:55;9.10;;;4.57;;
49460;SDS011;35355;49.198;-0.368;2023-04-03T07:42:22;8.88;;;3.92;;
49460;SDS011;35355;49.198;-0.368;2023-04-03T07:44:47;9.40;;;4.53;;
49460;SDS011;35355;49.198;-0.368;2023-04-03T07:47:12;8.48;;;4.25;;
49460;SDS011;35355;49.198;-0.368;2023-04-03T07:49:39;8.48;;;3.92;;
49460;SDS011;35355;49.198;-0.368;2023-04-03T07:52:05;8.98;;;4.63;;
49460;SDS011;35355;49.198;-0.368;2023-04-03T07:54:32;8.23;;;4.13;;
49460;SDS011;35355;49.198;-0.368;2023-04-03T07:56:57;11.35;;;4.50;;
49460;SDS011;35355;49.198;-0.368;2023-04-03T07:59:22;7.95;;;4.72;;
49460;SDS011;35355;49.198;-0.368;2023-04-03T08:01:48;6.38;;;4.22;;
49460;SDS011;35355;49.198;-0.368;2023-04-03T08:04:13;10.60;;;4.78;;
49460;SDS011;35355;49.198;-0.368;2023-04-03T08:06:38;7.25;;;4.63;;
49460;SDS011;35355;49.198;-0.368;2023-04-03T08:09:04;5.88;;;4.15;;
49460;SDS011;35355;49.198;-0.368;2023-04-03T08:11:29;8.57;;;4.75;;
49460;SDS011;35355;49.198;-0.368;2023-04-03T08:13:56;10.15;;;4.40;;
49460;SDS011;35355;49.198;-0.368;2023-04-03T08:16:22;7.82;;;3.88;;
49460;SDS011;35355;49.198;-0.368;2023-04-03T08:18:50;7.35;;;4.38;;
49460;SDS011;35355;49.198;-0.368;2023-04-03T08:21:15;7.18;;;4.38;;
49460;SDS011;35355;49.198;-0.368;2023-04-03T08:23:41;7.35;;;4.47;;
49460;SDS011;35355;49.198;-0.368;2023-04-03T08:26:11;6.95;;;3.65;;
49460;SDS011;35355;49.198;-0.368;2023-04-03T08:28:38;9.90;;;4.30;;
49460;SDS011;35355;49.198;-0.368;2023-04-03T08:31:05;9.25;;;4.15;;
49460;SDS011;35355;49.198;-0.368;2023-04-03T08:33:33;10.63;;;4.05;;
49460;SDS011;35355;49.198;-0.368;2023-04-03T08:35:59;7.78;;;3.83;;
49460;SDS011;35355;49.198;-0.368;2023-04-03T08:38:24;6.68;;;3.88;;
49460;SDS011;35355;49.198;-0.368;2023-04-03T08:41:00;7.65;;;4.78;;
49460;SDS011;35355;49.198;-0.368;2023-04-03T08:46:11;7.90;;;4.32;;
49460;SDS011;35355;49.198;-0.368;2023-04-03T08:48:41;9.73;;;3.85;;
49460;SDS011;35355;49.198;-0.368;2023-04-03T08:51:14;8.82;;;4.55;;
49460;SDS011;35355;49.198;-0.368;2023-04-03T08:53:44;7.55;;;3.88;;
49460;SDS011;35355;49.198;-0.368;2023-04-03T08:56:19;9.23;;;3.70;;
49460;SDS011;35355;49.198;-0.368;2023-04-03T08:58:47;7.72;;;4.53;;
49460;SDS011;35355;49.198;-0.368;2023-04-03T09:04:00;7.53;;;4.50;;
49460;SDS011;35355;49.198;-0.368;2023-04-03T09:06:29;9.60;;;4.82;;
49460;SDS011;35355;49.198;-0.368;2023-04-03T09:14:38;10.10;;;5.78;;
49460;SDS011;35355;49.198;-0.368;2023-04-03T09:22:58;12.23;;;4.70;;
49460;SDS011;35355;49.198;-0.368;2023-04-03T09:25:25;8.30;;;4.75;;
49460;SDS011;35355;49.198;-0.368;2023-04-03T09:27:54;9.18;;;5.15;;
49460;SDS011;35355;49.198;-0.368;2023-04-03T09:30:21;8.82;;;4.60;;
49460;SDS011;35355;49.198;-0.368;2023-04-03T09:32:49;9.43;;;4.70;;
49460;SDS011;35355;49.198;-0.368;2023-04-03T09:35:27;12.30;;;5.35;;
49460;SDS011;35355;49.198;-0.368;2023-04-03T09:40:36;13.90;;;5.32;;
49460;SDS011;35355;49.198;-0.368;2023-04-03T09:45:40;8.82;;;4.68;;
49460;SDS011;35355;49.198;-0.368;2023-04-03T09:50:38;11.43;;;5.88;;
49460;SDS011;35355;49.198;-0.368;2023-04-03T09:53:30;11.63;;;5.70;;
49460;SDS011;35355;49.198;-0.368;2023-04-03T09:58:41;9.27;;;5.97;;
49460;SDS011;35355;49.198;-0.368;2023-04-03T10:01:31;9.65;;;5.75;;
49460;SDS011;35355;49.198;-0.368;2023-04-03T10:06:29;11.27;;;6.28;;
49460;SDS011;35355;49.198;-0.368;2023-04-03T10:09:00;10.30;;;5.82;;
49460;SDS011;35355;49.198;-0.368;2023-04-03T10:11:29;11.20;;;6.20;;
49460;SDS011;35355;49.198;-0.368;2023-04-03T10:13:56;12.65;;;6.35;;
49460;SDS011;35355;49.198;-0.368;2023-04-03T10:19:47;9.80;;;5.13;;
49460;SDS011;35355;49.198;-0.368;2023-04-03T10:27:44;16.20;;;6.57;;
49460;SDS011;35355;49.198;-0.368;2023-04-03T10:44:20;11.43;;;5.40;;
49460;SDS011;35355;49.198;-0.368;2023-04-03T10:47:02;10.27;;;5.30;;
49460;SDS011;35355;49.198;-0.368;2023-04-03T10:55:27;9.82;;;5.95;;
49460;SDS011;35355;49.198;-0.368;2023-04-03T10:58:03;10.95;;;6.18;;
49460;SDS011;35355;49.198;-0.368;2023-04-03T11:00:37;11.05;;;6.75;;
49460;SDS011;35355;49.198;-0.368;2023-04-03T11:03:11;9.68;;;5.25;;
49460;SDS011;35355;49.198;-0.368;2023-04-03T11:05:51;11.57;;;6.00;;
49460;SDS011;35355;49.198;-0.368;2023-04-03T11:11:13;11.23;;;6.82;;
49460;SDS011;35355;49.198;-0.368;2023-04-03T11:16:40;11.70;;;6.30;;
49460;SDS011;35355;49.198;-0.368;2023-04-03T11:19:33;12.95;;;7.60;;
49460;SDS011;35355;49.198;-0.368;2023-04-03T11:22:03;13.05;;;6.10;;
49460;SDS011;35355;49.198;-0.368;2023-04-03T11:24:34;13.32;;;7.00;;
49460;SDS011;35355;49.198;-0.368;2023-04-03T11:27:05;13.10;;;7.03;;
49460;SDS011;35355;49.198;-0.368;2023-04-03T11:29:35;10.98;;;7.38;;
49460;SDS011;35355;49.198;-0.368;2023-04-03T11:32:14;7.78;;;5.60;;
49460;SDS011;35355;49.198;-0.368;2023-04-03T11:35:02;14.45;;;6.05;;
49460;SDS011;35355;49.198;-0.368;2023-04-03T11:37:34;13.27;;;6.32;;
49460;SDS011;35355;49.198;-0.368;2023-04-03T11:40:06;12.38;;;6.57;;
49460;SDS011;35355;49.198;-0.368;2023-04-03T11:42:46;10.95;;;6.57;;
49460;SDS011;35355;49.198;-0.368;2023-04-03T11:47:59;14.65;;;6.78;;
49460;SDS011;35355;49.198;-0.368;2023-04-03T12:05:57;12.73;;;6.57;;
49460;SDS011;35355;49.198;-0.368;2023-04-03T12:21:13;12.15;;;6.90;;
49460;SDS011;35355;49.198;-0.368;2023-04-03T12:29:10;11.48;;;6.28;;
49460;SDS011;35355;49.198;-0.368;2023-04-03T12:34:53;10.30;;;6.82;;
49460;SDS011;35355;49.198;-0.368;2023-04-03T12:37:41;11.27;;;6.75;;
49460;SDS011;35355;49.198;-0.368;2023-04-03T12:40:41;12.10;;;6.25;;
49460;SDS011;35355;49.198;-0.368;2023-04-03T12:46:14;11.57;;;6.50;;
49460;SDS011;35355;49.198;-0.368;2023-04-03T12:48:47;10.80;;;6.35;;
49460;SDS011;35355;49.198;-0.368;2023-04-03T12:51:17;11.43;;;7.07;;
49460;SDS011;35355;49.198;-0.368;2023-04-03T12:53:46;11.50;;;6.72;;
49460;SDS011;35355;49.198;-0.368;2023-04-03T12:56:20;11.90;;;7.18;;
49460;SDS011;35355;49.198;-0.368;2023-04-03T12:58:54;16.35;;;8.05;;
49460;SDS011;35355;49.198;-0.368;2023-04-03T13:01:37;14.07;;;7.53;;
49460;SDS011;35355;49.198;-0.368;2023-04-03T13:04:02;12.80;;;7.57;;
49460;SDS011;35355;49.198;-0.368;2023-04-03T13:06:33;19.48;;;8.50;;
49460;SDS011;35355;49.198;-0.368;2023-04-03T13:09:03;12.90;;;8.05;;
49460;SDS011;35355;49.198;-0.368;2023-04-03T13:11:38;16.92;;;8.48;;
49460;SDS011;35355;49.198;-0.368;2023-04-03T13:14:17;12.63;;;7.47;;
49460;SDS011;35355;49.198;-0.368;2023-04-03T13:16:55;12.73;;;7.75;;
49460;SDS011;35355;49.198;-0.368;2023-04-03T13:19:22;16.23;;;9.07;;
49460;SDS011;35355;49.198;-0.368;2023-04-03T13:22:01;13.15;;;8.05;;
49460;SDS011;35355;49.198;-0.368;2023-04-03T13:24:30;12.75;;;7.78;;
49460;SDS011;35355;49.198;-0.368;2023-04-03T13:27:00;19.67;;;8.02;;
49460;SDS011;35355;49.198;-0.368;2023-04-03T13:29:33;11.73;;;7.57;;
49460;SDS011;35355;49.198;-0.368;2023-04-03T13:32:00;13.48;;;8.43;;
49460;SDS011;35355;49.198;-0.368;2023-04-03T13:34:28;12.98;;;8.98;;
49460;SDS011;35355;49.198;-0.368;2023-04-03T13:37:01;15.60;;;9.38;;
49460;SDS011;35355;49.198;-0.368;2023-04-03T13:39:30;16.00;;;8.45;;
49460;SDS011;35355;49.198;-0.368;2023-04-03T13:42:43;17.25;;;8.70;;
49460;SDS011;35355;49.198;-0.368;2023-04-03T13:47:49;17.95;;;8.65;;
49460;SDS011;35355;49.198;-0.368;2023-04-03T13:52:48;12.25;;;7.82;;
49460;SDS011;35355;49.198;-0.368;2023-04-03T13:55:24;15.67;;;7.83;;
49460;SDS011;35355;49.198;-0.368;2023-04-03T13:58:00;13.00;;;7.75;;
49460;SDS011;35355;49.198;-0.368;2023-04-03T14:02:56;14.48;;;7.93;;
49460;SDS011;35355;49.198;-0.368;2023-04-03T14:05:22;13.93;;;7.50;;
49460;SDS011;35355;49.198;-0.368;2023-04-03T14:07:50;14.10;;;8.32;;
49460;SDS011;35355;49.198;-0.368;2023-04-03T14:10:16;11.75;;;8.30;;
49460;SDS011;35355;49.198;-0.368;2023-04-03T14:12:41;18.05;;;8.48;;
49460;SDS011;35355;49.198;-0.368;2023-04-03T14:15:12;18.90;;;9.18;;
49460;SDS011;35355;49.198;-0.368;2023-04-03T14:17:48;13.60;;;9.00;;
49460;SDS011;35355;49.198;-0.368;2023-04-03T14:20:16;14.75;;;9.75;;
49460;SDS011;35355;49.198;-0.368;2023-04-03T14:22:43;17.08;;;9.90;;
49460;SDS011;35355;49.198;-0.368;2023-04-03T14:25:09;14.95;;;9.98;;
49460;SDS011;35355;49.198;-0.368;2023-04-03T14:27:36;13.27;;;9.05;;
49460;SDS011;35355;49.198;-0.368;2023-04-03T14:30:04;16.10;;;9.20;;
49460;SDS011;35355;49.198;-0.368;2023-04-03T14:32:33;17.27;;;9.65;;
49460;SDS011;35355;49.198;-0.368;2023-04-03T14:34:58;14.75;;;9.52;;
49460;SDS011;35355;49.198;-0.368;2023-04-03T14:37:25;15.27;;;9.45;;
49460;SDS011;35355;49.198;-0.368;2023-04-03T14:39:53;20.10;;;9.40;;
49460;SDS011;35355;49.198;-0.368;2023-04-03T14:42:20;14.73;;;8.40;;
49460;SDS011;35355;49.198;-0.368;2023-04-03T14:44:49;11.32;;;7.85;;
49460;SDS011;35355;49.198;-0.368;2023-04-03T14:47:16;14.27;;;8.68;;
49460;SDS011;35355;49.198;-0.368;2023-04-03T14:49:44;12.85;;;7.47;;
49460;SDS011;35355;49.198;-0.368;2023-04-03T14:52:16;15.20;;;8.40;;
49460;SDS011;35355;49.198;-0.368;2023-04-03T14:54:45;10.45;;;7.70;;
49460;SDS011;35355;49.198;-0.368;2023-04-03T14:57:12;9.30;;;6.50;;
49460;SDS011;35355;49.198;-0.368;2023-04-03T14:59:39;12.55;;;6.43;;
49460;SDS011;35355;49.198;-0.368;2023-04-03T15:02:11;16.63;;;6.18;;
49460;SDS011;35355;49.198;-0.368;2023-04-03T15:04:46;13.93;;;7.10;;
49460;SDS011;35355;49.198;-0.368;2023-04-03T15:07:11;10.93;;;5.72;;
49460;SDS011;35355;49.198;-0.368;2023-04-03T15:09:37;8.90;;;5.78;;
49460;SDS011;35355;49.198;-0.368;2023-04-03T15:12:02;11.18;;;5.95;;
49460;SDS011;35355;49.198;-0.368;2023-04-03T15:14:28;8.93;;;5.75;;
49460;SDS011;35355;49.198;-0.368;2023-04-03T15:16:53;7.07;;;4.97;;
49460;SDS011;35355;49.198;-0.368;2023-04-03T15:19:18;10.75;;;5.90;;
49460;SDS011;35355;49.198;-0.368;2023-04-03T15:21:44;8.25;;;5.32;;
49460;SDS011;35355;49.198;-0.368;2023-04-03T15:24:09;10.88;;;5.75;;
49460;SDS011;35355;49.198;-0.368;2023-04-03T15:26:35;10.35;;;5.30;;
49460;SDS011;35355;49.198;-0.368;2023-04-03T15:29:00;10.35;;;5.60;;
49460;SDS011;35355;49.198;-0.368;2023-04-03T15:31:27;7.68;;;4.93;;
49460;SDS011;35355;49.198;-0.368;2023-04-03T15:33:52;8.80;;;5.20;;
49460;SDS011;35355;49.198;-0.368;2023-04-03T15:36:17;8.80;;;5.20;;
49460;SDS011;35355;49.198;-0.368;2023-04-03T15:38:43;12.02;;;5.22;;
49460;SDS011;35355;49.198;-0.368;2023-04-03T15:41:08;9.48;;;5.03;;
49460;SDS011;35355;49.198;-0.368;2023-04-03T15:43:34;13.85;;;4.55;;
49460;SDS011;35355;49.198;-0.368;2023-04-03T15:46:00;8.32;;;4.45;;
49460;SDS011;35355;49.198;-0.368;2023-04-03T15:48:26;6.68;;;4.22;;
49460;SDS011;35355;49.198;-0.368;2023-04-03T15:50:53;5.93;;;3.90;;
49460;SDS011;35355;49.198;-0.368;2023-04-03T15:53:19;5.15;;;4.25;;
49460;SDS011;35355;49.198;-0.368;2023-04-03T15:55:44;8.15;;;3.55;;
49460;SDS011;35355;49.198;-0.368;2023-04-03T15:58:10;7.57;;;3.40;;
49460;SDS011;35355;49.198;-0.368;2023-04-03T16:00:36;6.32;;;3.58;;
49460;SDS011;35355;49.198;-0.368;2023-04-03T16:03:04;5.30;;;3.25;;
49460;SDS011;35355;49.198;-0.368;2023-04-03T16:05:33;5.63;;;4.10;;
49460;SDS011;35355;49.198;-0.368;2023-04-03T16:08:02;5.25;;;3.50;;
49460;SDS011;35355;49.198;-0.368;2023-04-03T16:10:28;5.72;;;3.75;;
49460;SDS011;35355;49.198;-0.368;2023-04-03T16:12:54;10.30;;;3.75;;
49460;SDS011;35355;49.198;-0.368;2023-04-03T16:15:19;7.32;;;4.15;;
49460;SDS011;35355;49.198;-0.368;2023-04-03T16:17:45;5.68;;;2.90;;
49460;SDS011;35355;49.198;-0.368;2023-04-03T16:20:12;5.20;;;3.10;;
49460;SDS011;35355;49.198;-0.368;2023-04-03T16:22:38;6.45;;;3.60;;
49460;SDS011;35355;49.198;-0.368;2023-04-03T16:25:05;6.38;;;3.08;;
49460;SDS011;35355;49.198;-0.368;2023-04-03T16:27:32;4.00;;;2.47;;
49460;SDS011;35355;49.198;-0.368;2023-04-03T16:29:57;7.07;;;2.70;;